sensor_id;sensor_type;location;lat;lon;timestamp;pressure;altitude;pressure_sealevel;temperature;humidity
64253;BME280;50592;52.958;-7.470;2023-01-26T00:02:06;102536.69;;;4.28;100.00
64253;BME280;50592;52.958;-7.470;2023-01-26T00:04:32;102528.78;;;4.29;100.00
64253;BME280;50592;52.958;-7.470;2023-01-26T00:06:58;102530.44;;;4.32;100.00
64253;BME280;50592;52.958;-7.470;2023-01-26T00:09:24;102527.56;;;4.40;100.00
64253;BME280;50592;52.958;-7.470;2023-01-26T00:11:50;102530.00;;;4.44;100.00
64253;BME280;50592;52.958;-7.470;2023-01-26T00:14:15;102536.00;;;4.48;100.00
64253;BME280;50592;52.958;-7.470;2023-01-26T00:16:41;102534.84;;;4.57;100.00
64253;BME280;50592;52.958;-7.470;2023-01-26T00:19:07;102530.06;;;4.68;100.00
64253;BME280;50592;52.958;-7.470;2023-01-26T00:21:33;102531.25;;;4.85;100.00
64253;BME280;50592;52.958;-7.470;2023-01-26T00:23:59;102516.84;;;4.97;100.00
64253;BME280;50592;52.958;-7.470;2023-01-26T00:26:25;102521.59;;;5.11;100.00
64253;BME280;50592;52.958;-7.470;2023-01-26T00:28:52;102523.88;;;5.20;100.00
64253;BME280;50592;52.958;-7.470;2023-01-26T00:31:20;102532.22;;;5.30;100.00
64253;BME280;50592;52.958;-7.470;2023-01-26T00:33:46;102539.94;;;5.35;100.00
64253;BME280;50592;52.958;-7.470;2023-01-26T00:36:12;102538.78;;;5.42;100.00
64253;BME280;50592;52.958;-7.470;2023-01-26T00:38:39;102517.63;;;5.47;100.00
64253;BME280;50592;52.958;-7.470;2023-01-26T00:41:08;102516.59;;;5.51;100.00
64253;BME280;50592;52.958;-7.470;2023-01-26T00:43:55;102519.16;;;5.53;100.00
64253;BME280;50592;52.958;-7.470;2023-01-26T00:46:21;102515.44;;;5.58;100.00
64253;BME280;50592;52.958;-7.470;2023-01-26T00:48:46;102508.47;;;5.57;100.00
64253;BME280;50592;52.958;-7.470;2023-01-26T00:51:12;102509.22;;;5.61;100.00
64253;BME280;50592;52.958;-7.470;2023-01-26T00:53:38;102496.97;;;5.62;100.00
64253;BME280;50592;52.958;-7.470;2023-01-26T00:56:04;102505.59;;;5.65;100.00
64253;BME280;50592;52.958;-7.470;2023-01-26T00:58:32;102502.91;;;5.67;100.00
64253;BME280;50592;52.958;-7.470;2023-01-26T01:00:57;102509.78;;;5.69;100.00
64253;BME280;50592;52.958;-7.470;2023-01-26T01:03:23;102518.44;;;5.71;100.00
64253;BME280;50592;52.958;-7.470;2023-01-26T01:05:50;102513.09;;;5.75;100.00
64253;BME280;50592;52.958;-7.470;2023-01-26T01:08:16;102513.16;;;5.73;100.00
64253;BME280;50592;52.958;-7.470;2023-01-26T01:10:41;102511.28;;;5.75;100.00
64253;BME280;50592;52.958;-7.470;2023-01-26T01:13:07;102514.84;;;5.74;100.00
64253;BME280;50592;52.958;-7.470;2023-01-26T01:15:33;102512.97;;;5.78;100.00
64253;BME280;50592;52.958;-7.470;2023-01-26T01:17:58;102515.53;;;5.79;100.00
64253;BME280;50592;52.958;-7.470;2023-01-26T01:20:24;102524.28;;;5.78;100.00
64253;BME280;50592;52.958;-7.470;2023-01-26T01:22:50;102522.59;;;5.77;100.00
64253;BME280;50592;52.958;-7.470;2023-01-26T01:25:16;102527.78;;;5.79;100.00
64253;BME280;50592;52.958;-7.470;2023-01-26T01:27:42;102528.66;;;5.79;100.00
64253;BME280;50592;52.958;-7.470;2023-01-26T01:30:08;102527.78;;;5.79;100.00
64253;BME280;50592;52.958;-7.470;2023-01-26T01:32:35;102526.78;;;5.81;100.00
64253;BME280;50592;52.958;-7.470;2023-01-26T01:35:01;102524.22;;;5.80;100.00
64253;BME280;50592;52.958;-7.470;2023-01-26T01:37:28;102529.41;;;5.81;100.00
64253;BME280;50592;52.958;-7.470;2023-01-26T01:39:54;102526.03;;;5.79;100.00
64253;BME280;50592;52.958;-7.470;2023-01-26T01:42:21;102532.03;;;5.81;100.00
64253;BME280;50592;52.958;-7.470;2023-01-26T01:47:47;102519.09;;;5.77;100.00
64253;BME280;50592;52.958;-7.470;2023-01-26T01:50:16;102511.22;;;5.77;100.00
64253;BME280;50592;52.958;-7.470;2023-01-26T01:52:43;102509.59;;;5.74;100.00
64253;BME280;50592;52.958;-7.470;2023-01-26T01:55:11;102498.28;;;5.72;100.00
64253;BME280;50592;52.958;-7.470;2023-01-26T01:57:58;102514.91;;;5.73;100.00
64253;BME280;50592;52.958;-7.470;2023-01-26T02:00:25;102525.34;;;5.74;100.00
64253;BME280;50592;52.958;-7.470;2023-01-26T02:02:58;102526.91;;;5.78;100.00
64253;BME280;50592;52.958;-7.470;2023-01-26T02:08:23;102515.41;;;5.82;100.00
64253;BME280;50592;52.958;-7.470;2023-01-26T02:10:53;102511.09;;;5.80;100.00
64253;BME280;50592;52.958;-7.470;2023-01-26T02:13:20;102505.09;;;5.78;100.00
64253;BME280;50592;52.958;-7.470;2023-01-26T02:15:47;102503.16;;;5.81;100.00
64253;BME280;50592;52.958;-7.470;2023-01-26T02:18:13;102504.28;;;5.76;100.00
64253;BME280;50592;52.958;-7.470;2023-01-26T02:21:10;102507.41;;;5.86;100.00
64253;BME280;50592;52.958;-7.470;2023-01-26T02:23:53;102516.28;;;5.81;100.00
64253;BME280;50592;52.958;-7.470;2023-01-26T02:26:26;102514.47;;;5.83;100.00
64253;BME280;50592;52.958;-7.470;2023-01-26T02:28:53;102511.66;;;5.88;100.00
64253;BME280;50592;52.958;-7.470;2023-01-26T02:31:21;102519.47;;;5.90;100.00
64253;BME280;50592;52.958;-7.470;2023-01-26T02:33:47;102516.16;;;5.84;100.00
64253;BME280;50592;52.958;-7.470;2023-01-26T02:36:20;102516.09;;;5.86;100.00
64253;BME280;50592;52.958;-7.470;2023-01-26T02:39:03;102514.41;;;5.85;100.00
64253;BME280;50592;52.958;-7.470;2023-01-26T02:41:33;102519.03;;;5.78;100.00
64253;BME280;50592;52.958;-7.470;2023-01-26T02:44:19;102520.72;;;5.81;100.00
64253;BME280;50592;52.958;-7.470;2023-01-26T02:46:44;102512.78;;;5.82;100.00
64253;BME280;50592;52.958;-7.470;2023-01-26T02:49:12;102505.72;;;5.83;100.00
64253;BME280;50592;52.958;-7.470;2023-01-26T02:51:56;102507.59;;;5.81;100.00
64253;BME280;50592;52.958;-7.470;2023-01-26T02:54:22;102518.09;;;5.81;100.00
64253;BME280;50592;52.958;-7.470;2023-01-26T02:57:06;102525.03;;;5.82;100.00
64253;BME280;50592;52.958;-7.470;2023-01-26T02:59:32;102529.34;;;5.83;100.00
64253;BME280;50592;52.958;-7.470;2023-01-26T03:01:58;102517.22;;;5.80;100.00
64253;BME280;50592;52.958;-7.470;2023-01-26T03:04:24;102508.47;;;5.80;100.00
64253;BME280;50592;52.958;-7.470;2023-01-26T03:06:51;102498.28;;;5.72;100.00
64253;BME280;50592;52.958;-7.470;2023-01-26T03:09:17;102493.09;;;5.70;100.00
64253;BME280;50592;52.958;-7.470;2023-01-26T03:11:43;102500.97;;;5.70;100.00
64253;BME280;50592;52.958;-7.470;2023-01-26T03:14:13;102519.28;;;5.72;100.00
64253;BME280;50592;52.958;-7.470;2023-01-26T03:16:40;102525.47;;;5.71;100.00
64253;BME280;50592;52.958;-7.470;2023-01-26T03:19:10;102525.34;;;5.74;100.00
64253;BME280;50592;52.958;-7.470;2023-01-26T03:21:55;102526.25;;;5.73;100.00
64253;BME280;50592;52.958;-7.470;2023-01-26T03:24:39;102524.59;;;5.70;100.00
64253;BME280;50592;52.958;-7.470;2023-01-26T03:27:24;102527.28;;;5.69;100.00
64253;BME280;50592;52.958;-7.470;2023-01-26T03:29:55;102522.91;;;5.69;100.00
64253;BME280;50592;52.958;-7.470;2023-01-26T03:32:22;102509.03;;;5.66;100.00
64253;BME280;50592;52.958;-7.470;2023-01-26T03:34:49;102504.78;;;5.63;100.00
64253;BME280;50592;52.958;-7.470;2023-01-26T03:37:16;102527.59;;;5.61;100.00
64253;BME280;50592;52.958;-7.470;2023-01-26T03:40:08;102533.63;;;5.63;100.00
64253;BME280;50592;52.958;-7.470;2023-01-26T03:42:53;102522.28;;;5.63;100.00
64253;BME280;50592;52.958;-7.470;2023-01-26T03:45:37;102508.34;;;5.61;100.00
64253;BME280;50592;52.958;-7.470;2023-01-26T03:48:24;102504.91;;;5.60;100.00
64253;BME280;50592;52.958;-7.470;2023-01-26T03:51:09;102516.13;;;5.64;100.00
64253;BME280;50592;52.958;-7.470;2023-01-26T03:53:55;102526.63;;;5.64;100.00
64253;BME280;50592;52.958;-7.470;2023-01-26T03:56:39;102523.75;;;5.70;100.00
64253;BME280;50592;52.958;-7.470;2023-01-26T03:59:12;102513.19;;;5.71;100.00
64253;BME280;50592;52.958;-7.470;2023-01-26T04:01:45;102510.47;;;5.75;100.00
64253;BME280;50592;52.958;-7.470;2023-01-26T04:04:31;102510.53;;;5.73;100.00
64253;BME280;50592;52.958;-7.470;2023-01-26T04:07:15;102508.72;;;5.74;100.00
64253;BME280;50592;52.958;-7.470;2023-01-26T04:10:00;102503.47;;;5.74;100.00
64253;BME280;50592;52.958;-7.470;2023-01-26T04:12:25;102497.34;;;5.75;100.00
64253;BME280;50592;52.958;-7.470;2023-01-26T04:15:14;102499.09;;;5.74;100.00
64253;BME280;50592;52.958;-7.470;2023-01-26T04:18:05;102508.59;;;5.77;100.00
64253;BME280;50592;52.958;-7.470;2023-01-26T04:20:49;102506.03;;;5.75;100.00
64253;BME280;50592;52.958;-7.470;2023-01-26T04:23:33;102517.28;;;5.79;100.00
64253;BME280;50592;52.958;-7.470;2023-01-26T04:25:59;102512.03;;;5.79;100.00
64253;BME280;50592;52.958;-7.470;2023-01-26T04:28:25;102519.97;;;5.77;100.00
64253;BME280;50592;52.958;-7.470;2023-01-26T04:30:51;102515.59;;;5.78;100.00
64253;BME280;50592;52.958;-7.470;2023-01-26T04:33:17;102503.41;;;5.75;100.00
64253;BME280;50592;52.958;-7.470;2023-01-26T04:35:43;102509.59;;;5.74;100.00
64253;BME280;50592;52.958;-7.470;2023-01-26T04:38:09;102531.44;;;5.75;100.00
64253;BME280;50592;52.958;-7.470;2023-01-26T04:40:37;102541.75;;;5.79;100.00
64253;BME280;50592;52.958;-7.470;2023-01-26T04:43:03;102546.81;;;5.84;100.00
64253;BME280;50592;52.958;-7.470;2023-01-26T04:45:29;102538.66;;;5.92;100.00
64253;BME280;50592;52.958;-7.470;2023-01-26T04:47:54;102533.28;;;5.95;100.00
64253;BME280;50592;52.958;-7.470;2023-01-26T04:50:20;102529.06;;;5.91;100.00
64253;BME280;50592;52.958;-7.470;2023-01-26T04:52:46;102534.31;;;5.91;100.00
64253;BME280;50592;52.958;-7.470;2023-01-26T04:55:13;102528.53;;;5.82;100.00
64253;BME280;50592;52.958;-7.470;2023-01-26T04:57:41;102535.66;;;5.79;100.00
64253;BME280;50592;52.958;-7.470;2023-01-26T05:00:07;102527.03;;;5.75;100.00
64253;BME280;50592;52.958;-7.470;2023-01-26T05:02:34;102528.88;;;5.73;100.00
64253;BME280;50592;52.958;-7.470;2023-01-26T05:05:01;102530.59;;;5.74;100.00
64253;BME280;50592;52.958;-7.470;2023-01-26T05:07:27;102532.28;;;5.75;100.00
64253;BME280;50592;52.958;-7.470;2023-01-26T05:09:53;102526.97;;;5.77;100.00
64253;BME280;50592;52.958;-7.470;2023-01-26T05:12:49;102525.28;;;5.76;100.00
64253;BME280;50592;52.958;-7.470;2023-01-26T05:15:44;102538.16;;;5.82;100.00
64253;BME280;50592;52.958;-7.470;2023-01-26T05:18:17;102536.44;;;5.81;100.00
64253;BME280;50592;52.958;-7.470;2023-01-26T05:20:52;102532.22;;;5.77;100.00
64253;BME280;50592;52.958;-7.470;2023-01-26T05:23:24;102520.22;;;5.71;100.00
64253;BME280;50592;52.958;-7.470;2023-01-26T05:26:08;102506.47;;;5.64;100.00
64253;BME280;50592;52.958;-7.470;2023-01-26T05:28:50;102511.22;;;5.54;100.00
64253;BME280;50592;52.958;-7.470;2023-01-26T05:31:16;102508.66;;;5.53;100.00
64253;BME280;50592;52.958;-7.470;2023-01-26T05:33:42;102513.91;;;5.53;100.00
64253;BME280;50592;52.958;-7.470;2023-01-26T05:36:10;102513.97;;;5.51;100.00
64253;BME280;50592;52.958;-7.470;2023-01-26T05:38:37;102508.97;;;5.45;100.00
64253;BME280;50592;52.958;-7.470;2023-01-26T05:41:05;102514.09;;;5.48;100.00
64253;BME280;50592;52.958;-7.470;2023-01-26T05:43:39;102513.38;;;5.44;100.00
64253;BME280;50592;52.958;-7.470;2023-01-26T05:46:28;102514.31;;;5.42;100.00
64253;BME280;50592;52.958;-7.470;2023-01-26T05:48:54;102519.63;;;5.40;100.00
64253;BME280;50592;52.958;-7.470;2023-01-26T05:51:19;102517.94;;;5.39;100.00
64253;BME280;50592;52.958;-7.470;2023-01-26T05:53:45;102504.88;;;5.38;100.00
64253;BME280;50592;52.958;-7.470;2023-01-26T05:56:12;102512.00;;;5.34;100.00
64253;BME280;50592;52.958;-7.470;2023-01-26T05:58:42;102508.63;;;5.30;100.00
64253;BME280;50592;52.958;-7.470;2023-01-26T06:01:09;102514.78;;;5.29;100.00
64253;BME280;50592;52.958;-7.470;2023-01-26T06:03:45;102523.59;;;5.28;100.00
64253;BME280;50592;52.958;-7.470;2023-01-26T06:06:10;102526.16;;;5.30;100.00
64253;BME280;50592;52.958;-7.470;2023-01-26T06:08:44;102524.41;;;5.29;100.00
64253;BME280;50592;52.958;-7.470;2023-01-26T06:11:30;102510.47;;;5.28;100.00
64253;BME280;50592;52.958;-7.470;2023-01-26T06:14:16;102516.59;;;5.27;100.00
64253;BME280;50592;52.958;-7.470;2023-01-26T06:16:43;102518.47;;;5.25;100.00
64253;BME280;50592;52.958;-7.470;2023-01-26T06:19:10;102527.97;;;5.28;100.00
64253;BME280;50592;52.958;-7.470;2023-01-26T06:21:36;102535.78;;;5.29;100.00
64253;BME280;50592;52.958;-7.470;2023-01-26T06:24:03;102537.41;;;5.32;100.00
64253;BME280;50592;52.958;-7.470;2023-01-26T06:26:32;102527.09;;;5.27;100.00
64253;BME280;50592;52.958;-7.470;2023-01-26T06:29:01;102530.75;;;5.23;100.00
64253;BME280;50592;52.958;-7.470;2023-01-26T06:31:35;102541.13;;;5.26;100.00
64253;BME280;50592;52.958;-7.470;2023-01-26T06:34:02;102545.63;;;5.22;100.00
64253;BME280;50592;52.958;-7.470;2023-01-26T06:36:31;102549.00;;;5.26;100.00
64253;BME280;50592;52.958;-7.470;2023-01-26T06:38:58;102538.44;;;5.28;100.00
64253;BME280;50592;52.958;-7.470;2023-01-26T06:41:24;102528.09;;;5.25;100.00
64253;BME280;50592;52.958;-7.470;2023-01-26T06:43:49;102514.34;;;5.18;100.00
64253;BME280;50592;52.958;-7.470;2023-01-26T06:46:16;102522.56;;;5.08;100.00
64253;BME280;50592;52.958;-7.470;2023-01-26T06:48:44;102531.44;;;5.04;100.00
64253;BME280;50592;52.958;-7.470;2023-01-26T06:53:53;102528.25;;;4.96;100.00
64253;BME280;50592;52.958;-7.470;2023-01-26T06:56:30;102518.78;;;4.92;100.00
64253;BME280;50592;52.958;-7.470;2023-01-26T06:59:16;102526.72;;;4.90;100.00
64253;BME280;50592;52.958;-7.470;2023-01-26T07:02:17;102544.09;;;4.93;100.00
64253;BME280;50592;52.958;-7.470;2023-01-26T07:04:44;102549.44;;;4.90;100.00
64253;BME280;50592;52.958;-7.470;2023-01-26T07:07:10;102542.66;;;4.84;100.00
64253;BME280;50592;52.958;-7.470;2023-01-26T07:09:36;102546.16;;;4.83;100.00
64253;BME280;50592;52.958;-7.470;2023-01-26T07:12:01;102561.06;;;4.82;100.00
64253;BME280;50592;52.958;-7.470;2023-01-26T07:14:27;102549.72;;;4.82;100.00
64253;BME280;50592;52.958;-7.470;2023-01-26T07:16:53;102561.94;;;4.81;100.00
64253;BME280;50592;52.958;-7.470;2023-01-26T07:19:19;102559.31;;;4.81;100.00
64253;BME280;50592;52.958;-7.470;2023-01-26T07:21:45;102565.47;;;4.80;100.00
64253;BME280;50592;52.958;-7.470;2023-01-26T07:24:11;102564.69;;;4.78;100.00
64253;BME280;50592;52.958;-7.470;2023-01-26T07:26:36;102560.34;;;4.77;100.00
64253;BME280;50592;52.958;-7.470;2023-01-26T07:29:02;102563.13;;;4.72;100.00
64253;BME280;50592;52.958;-7.470;2023-01-26T07:31:28;102563.91;;;4.75;100.00
64253;BME280;50592;52.958;-7.470;2023-01-26T07:33:54;102561.28;;;4.75;100.00
64253;BME280;50592;52.958;-7.470;2023-01-26T07:36:19;102562.06;;;4.78;100.00
64253;BME280;50592;52.958;-7.470;2023-01-26T07:38:46;102562.91;;;4.79;100.00
64253;BME280;50592;52.958;-7.470;2023-01-26T07:41:12;102561.09;;;4.81;100.00
64253;BME280;50592;52.958;-7.470;2023-01-26T07:43:38;102574.00;;;4.87;100.00
64253;BME280;50592;52.958;-7.470;2023-01-26T07:46:08;102578.25;;;4.90;100.00
64253;BME280;50592;52.958;-7.470;2023-01-26T07:48:36;102578.16;;;4.93;100.00
64253;BME280;50592;52.958;-7.470;2023-01-26T07:51:03;102572.78;;;4.96;100.00
64253;BME280;50592;52.958;-7.470;2023-01-26T07:53:30;102578.03;;;4.96;100.00
64253;BME280;50592;52.958;-7.470;2023-01-26T07:56:09;102580.50;;;5.01;100.00
64253;BME280;50592;52.958;-7.470;2023-01-26T07:58:37;102589.06;;;5.06;100.00
64253;BME280;50592;52.958;-7.470;2023-01-26T08:01:04;102586.22;;;5.12;100.00
64253;BME280;50592;52.958;-7.470;2023-01-26T08:03:30;102584.41;;;5.14;100.00
64253;BME280;50592;52.958;-7.470;2023-01-26T08:05:56;102588.56;;;5.20;100.00
64253;BME280;50592;52.958;-7.470;2023-01-26T08:08:21;102582.38;;;5.21;100.00
64253;BME280;50592;52.958;-7.470;2023-01-26T08:10:47;102580.56;;;5.23;100.00
64253;BME280;50592;52.958;-7.470;2023-01-26T08:13:13;102581.44;;;5.24;100.00
64253;BME280;50592;52.958;-7.470;2023-01-26T08:15:39;102576.97;;;5.26;100.00
64253;BME280;50592;52.958;-7.470;2023-01-26T08:18:05;102581.38;;;5.25;100.00
64253;BME280;50592;52.958;-7.470;2023-01-26T08:20:30;102575.09;;;5.29;100.00
64253;BME280;50592;52.958;-7.470;2023-01-26T08:22:56;102581.22;;;5.30;100.00
64253;BME280;50592;52.958;-7.470;2023-01-26T08:25:22;102588.16;;;5.31;100.00
64253;BME280;50592;52.958;-7.470;2023-01-26T08:27:48;102575.09;;;5.29;100.00
64253;BME280;50592;52.958;-7.470;2023-01-26T08:30:13;102573.28;;;5.31;100.00
64253;BME280;50592;52.958;-7.470;2023-01-26T08:32:40;102572.38;;;5.32;100.00
64253;BME280;50592;52.958;-7.470;2023-01-26T08:35:06;102570.66;;;5.31;100.00
64253;BME280;50592;52.958;-7.470;2023-01-26T08:37:32;102576.03;;;5.28;100.00
64253;BME280;50592;52.958;-7.470;2023-01-26T08:39:58;102579.47;;;5.29;100.00
64253;BME280;50592;52.958;-7.470;2023-01-26T08:42:24;102589.97;;;5.29;100.00
64253;BME280;50592;52.958;-7.470;2023-01-26T08:44:49;102578.66;;;5.28;100.00
64253;BME280;50592;52.958;-7.470;2023-01-26T08:47:17;102581.38;;;5.25;100.00
64253;BME280;50592;52.958;-7.470;2023-01-26T08:49:42;102573.47;;;5.27;100.00
64253;BME280;50592;52.958;-7.470;2023-01-26T08:52:08;102579.66;;;5.24;100.00
64253;BME280;50592;52.958;-7.470;2023-01-26T08:54:34;102583.16;;;5.25;100.00
64253;BME280;50592;52.958;-7.470;2023-01-26T08:57:00;102587.59;;;5.22;100.00
64253;BME280;50592;52.958;-7.470;2023-01-26T08:59:25;102590.16;;;5.24;100.00
64253;BME280;50592;52.958;-7.470;2023-01-26T09:01:51;102585.75;;;5.25;100.00
64253;BME280;50592;52.958;-7.470;2023-01-26T09:04:17;102583.09;;;5.26;100.00
64253;BME280;50592;52.958;-7.470;2023-01-26T09:06:43;102588.28;;;5.28;100.00
64253;BME280;50592;52.958;-7.470;2023-01-26T09:09:09;102589.88;;;5.32;100.00
64253;BME280;50592;52.958;-7.470;2023-01-26T09:11:38;102586.47;;;5.30;100.00
64253;BME280;50592;52.958;-7.470;2023-01-26T09:14:04;102587.22;;;5.33;100.00
64253;BME280;50592;52.958;-7.470;2023-01-26T09:16:30;102579.44;;;5.30;100.00
64253;BME280;50592;52.958;-7.470;2023-01-26T09:18:56;102587.22;;;5.33;100.00
64253;BME280;50592;52.958;-7.470;2023-01-26T09:21:22;102595.84;;;5.36;100.00
64253;BME280;50592;52.958;-7.470;2023-01-26T09:23:50;102601.91;;;5.38;100.00
64253;BME280;50592;52.958;-7.470;2023-01-26T09:26:16;102602.78;;;5.38;100.00
64253;BME280;50592;52.958;-7.470;2023-01-26T09:28:42;102602.66;;;5.41;100.00
64253;BME280;50592;52.958;-7.470;2023-01-26T09:31:09;102604.31;;;5.44;100.00
64253;BME280;50592;52.958;-7.470;2023-01-26T09:33:36;102613.88;;;5.45;100.00
64253;BME280;50592;52.958;-7.470;2023-01-26T09:36:08;102614.63;;;5.49;100.00
64253;BME280;50592;52.958;-7.470;2023-01-26T09:38:37;102610.25;;;5.49;100.00
64253;BME280;50592;52.958;-7.470;2023-01-26T09:43:59;102603.16;;;5.51;100.00
64253;BME280;50592;52.958;-7.470;2023-01-26T09:49:55;102618.53;;;5.61;100.00
64253;BME280;50592;52.958;-7.470;2023-01-26T09:52:32;102620.16;;;5.65;100.00
64253;BME280;50592;52.958;-7.470;2023-01-26T09:55:03;102621.81;;;5.67;100.00
64253;BME280;50592;52.958;-7.470;2023-01-26T09:57:58;102617.34;;;5.69;100.00
64253;BME280;50592;52.958;-7.470;2023-01-26T10:00:45;102617.25;;;5.73;100.00
64253;BME280;50592;52.958;-7.470;2023-01-26T10:03:40;102623.19;;;5.78;100.00
64253;BME280;50592;52.958;-7.470;2023-01-26T10:06:27;102616.03;;;5.81;100.00
64253;BME280;50592;52.958;-7.470;2023-01-26T10:09:25;102632.56;;;5.83;100.00
64253;BME280;50592;52.958;-7.470;2023-01-26T10:12:00;102628.84;;;5.89;100.00
64253;BME280;50592;52.958;-7.470;2023-01-26T10:14:36;102630.41;;;5.95;100.00
64253;BME280;50592;52.958;-7.470;2023-01-26T10:17:09;102632.91;;;5.98;100.00
64253;BME280;50592;52.958;-7.470;2023-01-26T10:19:54;102631.03;;;6.02;100.00
64253;BME280;50592;52.958;-7.470;2023-01-26T10:22:31;102629.22;;;6.02;100.00
64253;BME280;50592;52.958;-7.470;2023-01-26T10:25:01;102649.34;;;6.03;100.00
64253;BME280;50592;52.958;-7.470;2023-01-26T10:27:27;102642.28;;;6.05;100.00
64253;BME280;50592;52.958;-7.470;2023-01-26T10:29:54;102651.88;;;6.06;100.00
64253;BME280;50592;52.958;-7.470;2023-01-26T10:32:20;102643.94;;;6.08;100.00
64253;BME280;50592;52.958;-7.470;2023-01-26T10:34:48;102648.25;;;6.09;100.00
64253;BME280;50592;52.958;-7.470;2023-01-26T10:37:27;102647.16;;;6.15;100.00
64253;BME280;50592;52.958;-7.470;2023-01-26T10:40:05;102651.56;;;6.14;100.00
64253;BME280;50592;52.958;-7.470;2023-01-26T10:42:33;102647.22;;;6.13;100.00
64253;BME280;50592;52.958;-7.470;2023-01-26T10:45:02;102639.19;;;6.18;100.00
64253;BME280;50592;52.958;-7.470;2023-01-26T10:47:28;102653.16;;;6.18;100.00
64253;BME280;50592;52.958;-7.470;2023-01-26T10:50:24;102654.75;;;6.23;100.00
64253;BME280;50592;52.958;-7.470;2023-01-26T10:53:01;102648.38;;;6.28;100.00
64253;BME280;50592;52.958;-7.470;2023-01-26T10:55:29;102661.66;;;6.25;100.00
64253;BME280;50592;52.958;-7.470;2023-01-26T10:57:56;102661.72;;;6.24;100.00
64253;BME280;50592;52.958;-7.470;2023-01-26T11:00:30;102667.53;;;6.32;100.00
64253;BME280;50592;52.958;-7.470;2023-01-26T11:03:17;102661.41;;;6.31;100.00
64253;BME280;50592;52.958;-7.470;2023-01-26T11:05:43;102661.41;;;6.31;100.00
64253;BME280;50592;52.958;-7.470;2023-01-26T11:08:35;102669.03;;;6.38;100.00
64253;BME280;50592;52.958;-7.470;2023-01-26T11:11:02;102659.34;;;6.40;100.00
64253;BME280;50592;52.958;-7.470;2023-01-26T11:13:29;102660.91;;;6.44;100.00
64253;BME280;50592;52.958;-7.470;2023-01-26T11:16:13;102649.44;;;6.47;100.00
64253;BME280;50592;52.958;-7.470;2023-01-26T11:19:03;102652.91;;;6.47;100.00
64253;BME280;50592;52.958;-7.470;2023-01-26T11:21:42;102642.13;;;6.53;100.00
64253;BME280;50592;52.958;-7.470;2023-01-26T11:27:26;102637.44;;;6.62;100.00
64253;BME280;50592;52.958;-7.470;2023-01-26T11:30:55;102641.63;;;6.66;100.00
64253;BME280;50592;52.958;-7.470;2023-01-26T11:52:07;102638.81;;;6.91;100.00
64253;BME280;50592;52.958;-7.470;2023-01-26T11:57:47;102630.09;;;6.91;100.00
64253;BME280;50592;52.958;-7.470;2023-01-26T12:00:26;102630.66;;;6.98;100.00
64253;BME280;50592;52.958;-7.470;2023-01-26T12:03:04;102623.50;;;7.01;100.00
64253;BME280;50592;52.958;-7.470;2023-01-26T12:05:40;102620.88;;;7.01;100.00
64253;BME280;50592;52.958;-7.470;2023-01-26T12:08:22;102622.53;;;7.04;100.00
64253;BME280;50592;52.958;-7.470;2023-01-26T12:16:43;102620.94;;;7.00;100.00
64253;BME280;50592;52.958;-7.470;2023-01-26T12:21:44;102628.22;;;6.93;100.00
64253;BME280;50592;52.958;-7.470;2023-01-26T12:25:15;102627.34;;;6.94;100.00
64253;BME280;50592;52.958;-7.470;2023-01-26T12:27:15;102627.34;;;6.94;100.00
64253;BME280;50592;52.958;-7.470;2023-01-26T12:29:55;102630.22;;;6.88;100.00
64253;BME280;50592;52.958;-7.470;2023-01-26T12:32:26;102618.66;;;6.92;100.00
64253;BME280;50592;52.958;-7.470;2023-01-26T12:34:51;102620.28;;;6.94;100.00
64253;BME280;50592;52.958;-7.470;2023-01-26T12:42:48;102612.09;;;7.02;100.00
64253;BME280;50592;52.958;-7.470;2023-01-26T12:45:26;102612.09;;;7.02;100.00
64253;BME280;50592;52.958;-7.470;2023-01-26T12:48:22;102608.66;;;7.00;100.00
64253;BME280;50592;52.958;-7.470;2023-01-26T12:51:05;102605.09;;;7.01;100.00
64253;BME280;50592;52.958;-7.470;2023-01-26T12:53:42;102600.91;;;6.97;100.00
64253;BME280;50592;52.958;-7.470;2023-01-26T12:56:22;102593.09;;;6.95;100.00
64253;BME280;50592;52.958;-7.470;2023-01-26T12:58:51;102582.28;;;7.02;100.00
64253;BME280;50592;52.958;-7.470;2023-01-26T13:01:21;102588.22;;;7.07;100.00
64253;BME280;50592;52.958;-7.470;2023-01-26T13:04:13;102579.69;;;7.21;100.00
64253;BME280;50592;52.958;-7.470;2023-01-26T13:06:40;102566.63;;;7.19;100.00
64253;BME280;50592;52.958;-7.470;2023-01-26T13:09:24;102561.91;;;7.26;100.00
64253;BME280;50592;52.958;-7.470;2023-01-26T13:11:57;102555.75;;;7.27;100.00
64253;BME280;50592;52.958;-7.470;2023-01-26T13:24:48;102539.41;;;7.40;100.00
64253;BME280;50592;52.958;-7.470;2023-01-26T13:27:42;102542.09;;;7.38;100.00
64253;BME280;50592;52.958;-7.470;2023-01-26T13:35:17;102521.91;;;7.39;100.00
64253;BME280;50592;52.958;-7.470;2023-01-26T13:38:08;102523.81;;;7.35;100.00
64253;BME280;50592;52.958;-7.470;2023-01-26T13:40:40;102529.22;;;7.32;100.00
64253;BME280;50592;52.958;-7.470;2023-01-26T13:45:58;102529.16;;;7.34;100.00
64253;BME280;50592;52.958;-7.470;2023-01-26T13:51:01;102531.72;;;7.35;100.00
64253;BME280;50592;52.958;-7.470;2023-01-26T13:53:39;102544.72;;;7.38;100.00
64253;BME280;50592;52.958;-7.470;2023-01-26T13:56:41;102529.00;;;7.37;100.00
64253;BME280;50592;52.958;-7.470;2023-01-26T14:01:47;102525.22;;;7.42;100.00
64253;BME280;50592;52.958;-7.470;2023-01-26T14:04:19;102525.09;;;7.45;100.00
64253;BME280;50592;52.958;-7.470;2023-01-26T14:06:52;102527.63;;;7.47;100.00
64253;BME280;50592;52.958;-7.470;2023-01-26T14:09:19;102523.88;;;7.53;100.00
64253;BME280;50592;52.958;-7.470;2023-01-26T14:11:56;102515.78;;;7.57;100.00
64253;BME280;50592;52.958;-7.470;2023-01-26T14:14:25;102514.91;;;7.57;100.00
64253;BME280;50592;52.958;-7.470;2023-01-26T14:16:52;102514.91;;;7.57;100.00
64253;BME280;50592;52.958;-7.470;2023-01-26T14:19:20;102512.44;;;7.54;100.00
64253;BME280;50592;52.958;-7.470;2023-01-26T14:21:54;102521.94;;;7.56;100.00